createdAt,value
2023-04-23T00:01:20.659Z,12.04
2023-04-23T00:03:51.349Z,12.08
2023-04-23T00:06:22.561Z,12.18
2023-04-23T00:08:54.479Z,12.08
2023-04-23T00:11:23.088Z,12.09
2023-04-23T00:13:51.772Z,12.05
2023-04-23T00:16:21.563Z,11.97
2023-04-23T00:18:51.387Z,12.01
2023-04-23T00:21:19.836Z,11.92
2023-04-23T00:23:48.250Z,11.97
2023-04-23T00:26:18.649Z,11.90
2023-04-23T00:28:47.022Z,11.76
2023-04-23T00:31:15.670Z,11.66
2023-04-23T00:33:44.219Z,11.61
2023-04-23T00:36:14.153Z,11.72
2023-04-23T00:38:42.639Z,11.69
2023-04-23T00:41:11.216Z,11.68
2023-04-23T00:43:39.625Z,11.54
2023-04-23T00:46:08.535Z,11.45
2023-04-23T00:48:37.533Z,11.35
2023-04-23T00:51:07.381Z,11.49
2023-04-23T00:53:37.193Z,11.24
2023-04-23T00:56:07.307Z,11.42
2023-04-23T00:58:36.259Z,11.38
2023-04-23T01:01:05.145Z,11.06
2023-04-23T01:03:36.875Z,10.96
2023-04-23T01:06:05.741Z,11.25
2023-04-23T01:08:35.849Z,11.25
2023-04-23T01:11:06.689Z,11.31
2023-04-23T01:13:35.836Z,11.30
2023-04-23T01:16:04.314Z,11.22
2023-04-23T01:18:32.681Z,11.23
2023-04-23T01:21:01.947Z,10.97
2023-04-23T01:23:32.917Z,11.23
2023-04-23T01:26:01.462Z,11.01
2023-04-23T01:28:30.949Z,11.05
2023-04-23T01:31:00.732Z,11.13
2023-04-23T01:33:29.829Z,10.54
2023-04-23T01:35:59.018Z,11.04
2023-04-23T01:38:33.182Z,10.99
2023-04-23T01:41:01.344Z,10.78
2023-04-23T01:43:29.948Z,10.95
2023-04-23T01:45:59.561Z,11.01
2023-04-23T01:48:28.039Z,10.86
2023-04-23T01:50:56.487Z,10.86
2023-04-23T01:53:24.585Z,10.96
2023-04-23T01:55:55.276Z,10.94
2023-04-23T01:58:23.920Z,10.90
2023-04-23T02:00:52.231Z,10.90
2023-04-23T02:03:20.590Z,10.96
2023-04-23T02:05:49.816Z,10.84
2023-04-23T02:08:17.966Z,10.74
2023-04-23T02:10:46.191Z,10.62
2023-04-23T02:13:16.019Z,10.69
2023-04-23T02:15:44.483Z,10.54
2023-04-23T02:18:12.851Z,10.44
2023-04-23T02:20:41.651Z,10.25
2023-04-23T02:23:10.268Z,10.49
2023-04-23T02:25:39.538Z,10.36
2023-04-23T02:28:08.473Z,10.35
2023-04-23T02:30:38.207Z,10.44
2023-04-23T02:33:06.864Z,10.19
2023-04-23T02:35:35.041Z,10.38
2023-04-23T02:38:03.272Z,10.39
2023-04-23T02:40:31.588Z,10.39
2023-04-23T02:42:59.770Z,10.33
2023-04-23T02:45:27.969Z,10.44
2023-04-23T02:47:58.088Z,10.40
2023-04-23T02:50:26.287Z,10.40
2023-04-23T02:52:54.448Z,10.32
2023-04-23T02:55:25.316Z,10.23
2023-04-23T02:57:53.549Z,10.37
2023-04-23T03:00:21.775Z,10.32
2023-04-23T03:02:50.070Z,10.29
2023-04-23T03:05:19.803Z,10.21
2023-04-23T03:07:47.993Z,10.22
2023-04-23T03:10:16.144Z,10.18
2023-04-23T03:12:44.308Z,10.20
2023-04-23T03:15:12.916Z,10.30
2023-04-23T03:17:41.106Z,10.38
2023-04-23T03:20:11.722Z,10.35
2023-04-23T03:22:41.425Z,10.36
2023-04-23T03:25:10.337Z,10.14
2023-04-23T03:27:40.568Z,10.30
2023-04-23T03:30:10.184Z,10.20
2023-04-23T03:32:38.472Z,10.15
2023-04-23T03:35:07.457Z,10.17
2023-04-23T03:37:35.626Z,10.12
2023-04-23T03:40:07.875Z,10.13
2023-04-23T03:42:36.233Z,9.95
2023-04-23T03:45:04.818Z,10.09
2023-04-23T03:47:33.229Z,10.21
2023-04-23T03:50:01.559Z,10.18
2023-04-23T03:52:29.763Z,10.14
2023-04-23T03:54:58.092Z,10.08
2023-04-23T03:57:27.828Z,9.71
2023-04-23T03:59:56.021Z,9.72
2023-04-23T04:02:24.692Z,9.73
2023-04-23T04:04:55.123Z,9.82
2023-04-23T04:07:23.659Z,9.73
2023-04-23T04:09:51.837Z,9.83
2023-04-23T04:12:19.969Z,9.87
2023-04-23T04:14:49.644Z,9.91
2023-04-23T04:17:17.830Z,9.94
2023-04-23T04:19:46.388Z,9.97
2023-04-23T04:22:14.764Z,9.97
2023-04-23T04:24:43.996Z,10.12
2023-04-23T04:27:12.428Z,10.29
2023-04-23T04:29:41.304Z,10.43
2023-04-23T04:32:11.550Z,10.39
2023-04-23T04:34:40.492Z,10.23
2023-04-23T04:37:10.160Z,10.32
2023-04-23T04:39:38.431Z,10.36
2023-04-23T04:42:07.466Z,10.35
2023-04-23T04:44:37.653Z,10.34
2023-04-23T04:47:07.335Z,10.40
2023-04-23T04:49:37.269Z,10.32
2023-04-23T04:52:05.533Z,10.54
2023-04-23T04:54:33.760Z,10.70
2023-04-23T04:57:02.488Z,10.86
2023-04-23T04:59:30.771Z,10.35
2023-04-23T05:01:59.863Z,10.68
2023-04-23T05:04:28.220Z,10.72
2023-04-23T05:06:57.822Z,10.78
2023-04-23T05:09:26.831Z,10.50
2023-04-23T05:11:55.066Z,10.86
2023-04-23T05:14:23.346Z,10.84
2023-04-23T05:16:51.583Z,10.97
2023-04-23T05:19:19.854Z,11.04
2023-04-23T05:21:48.121Z,11.07
2023-04-23T05:24:17.801Z,11.25
2023-04-23T05:26:46.003Z,11.33
2023-04-23T05:29:18.038Z,11.50
2023-04-23T05:31:46.859Z,11.54
2023-04-23T05:34:15.123Z,11.60
2023-04-23T05:36:43.262Z,11.49
2023-04-23T05:39:11.590Z,11.60
2023-04-23T05:41:41.291Z,11.45
2023-04-23T05:44:09.588Z,11.58
2023-04-23T05:46:38.898Z,11.71
2023-04-23T05:49:07.259Z,11.65
2023-04-23T05:51:35.433Z,11.70
2023-04-23T05:54:03.672Z,11.82
2023-04-23T05:56:31.882Z,11.88
2023-04-23T05:59:01.554Z,12.02
2023-04-23T06:01:30.057Z,12.01
2023-04-23T06:03:58.847Z,12.06
2023-04-23T06:06:28.185Z,12.23
2023-04-23T06:08:57.865Z,12.10
2023-04-23T06:11:26.241Z,12.39
2023-04-23T06:13:56.732Z,12.72
2023-04-23T06:16:26.533Z,13.03
2023-04-23T06:18:56.352Z,13.60
2023-04-23T06:21:24.893Z,13.86
2023-04-23T06:23:53.138Z,14.04
2023-04-23T06:26:21.416Z,14.28
2023-04-23T06:28:49.694Z,14.44
2023-04-23T06:31:18.011Z,14.64
2023-04-23T06:33:47.620Z,14.96
2023-04-23T06:36:15.864Z,15.20
2023-04-23T06:38:44.761Z,15.24
2023-04-23T06:41:14.068Z,15.25
2023-04-23T06:43:42.295Z,15.35
2023-04-23T06:46:10.818Z,15.31
2023-04-23T06:48:39.005Z,15.24
2023-04-23T06:51:08.586Z,15.12
2023-04-23T06:53:36.746Z,15.22
2023-04-23T06:56:05.054Z,15.14
2023-04-23T06:58:33.225Z,15.07
2023-04-23T07:01:04.353Z,15.45
2023-04-23T07:03:32.896Z,15.40
2023-04-23T07:06:01.554Z,15.39
2023-04-23T07:08:31.349Z,16.22
2023-04-23T07:10:59.835Z,16.45
2023-04-23T07:13:28.178Z,16.52
2023-04-23T07:15:56.481Z,16.57
2023-04-23T07:18:25.302Z,16.44
2023-04-23T07:20:53.620Z,16.54
2023-04-23T07:23:22.475Z,16.71
2023-04-23T07:25:56.331Z,16.78
2023-04-23T07:28:24.599Z,16.66
2023-04-23T07:30:52.998Z,16.81
2023-04-23T07:33:21.761Z,16.45
2023-04-23T07:35:50.242Z,16.63
2023-04-23T07:38:18.646Z,16.59
2023-04-23T07:40:47.707Z,16.28
2023-04-23T07:43:17.424Z,16.63
2023-04-23T07:45:45.670Z,17.02
2023-04-23T07:48:13.940Z,17.01
2023-04-23T07:50:42.205Z,17.03
2023-04-23T07:53:10.436Z,17.17
2023-04-23T07:55:38.614Z,17.19
2023-04-23T07:58:06.810Z,17.08
2023-04-23T08:00:37.398Z,17.05
2023-04-23T08:03:06.314Z,17.20
2023-04-23T08:05:34.748Z,17.35
2023-04-23T08:08:02.969Z,17.83
2023-04-23T08:10:31.149Z,17.83
2023-04-23T08:12:59.335Z,17.89
2023-04-23T08:15:27.646Z,18.18
2023-04-23T08:17:57.234Z,18.13
2023-04-23T08:20:25.393Z,18.32
2023-04-23T08:22:54.252Z,18.53
2023-04-23T08:25:22.485Z,18.64
2023-04-23T08:27:50.798Z,18.72
2023-04-23T08:30:19.022Z,18.68
2023-04-23T08:32:51.003Z,18.60
2023-04-23T08:35:21.108Z,18.49
2023-04-23T08:37:49.465Z,18.48
2023-04-23T08:40:18.139Z,18.25
2023-04-23T08:42:51.210Z,18.56
2023-04-23T08:45:20.191Z,18.69
2023-04-23T08:47:48.438Z,18.84
2023-04-23T08:50:18.278Z,18.97
2023-04-23T08:52:54.455Z,19.07
2023-04-23T08:55:24.248Z,19.14
2023-04-23T08:57:53.445Z,18.84
2023-04-23T09:00:24.120Z,19.46
2023-04-23T09:02:52.693Z,19.39
2023-04-23T09:05:21.458Z,19.43
2023-04-23T09:07:51.299Z,19.29
2023-04-23T09:10:19.717Z,19.14
2023-04-23T09:12:48.439Z,18.79
2023-04-23T09:15:17.002Z,19.16
2023-04-23T09:17:47.351Z,19.34
2023-04-23T09:20:16.459Z,19.53
2023-04-23T09:22:47.323Z,19.88
2023-04-23T09:25:19.774Z,20.00
2023-04-23T09:27:49.038Z,19.64
2023-04-23T09:30:18.238Z,20.02
2023-04-23T09:32:48.123Z,19.93
2023-04-23T09:35:20.054Z,19.81
2023-04-23T09:37:50.457Z,19.90
2023-04-23T09:40:22.178Z,19.84
2023-04-23T09:42:52.757Z,19.58
2023-04-23T09:45:22.777Z,19.88
2023-04-23T09:47:53.188Z,19.67
2023-04-23T09:50:21.982Z,19.28
2023-04-23T09:52:57.321Z,18.52
2023-04-23T09:55:38.909Z,19.63
2023-04-23T09:58:08.510Z,20.05
2023-04-23T10:00:38.437Z,20.22
2023-04-23T10:03:08.952Z,20.25
2023-04-23T10:05:59.566Z,20.15
2023-04-23T10:08:29.175Z,20.51
2023-04-23T10:11:09.983Z,20.68
2023-04-23T10:13:47.634Z,20.77
2023-04-23T10:16:22.435Z,20.56
2023-04-23T10:18:55.570Z,20.56
2023-04-23T10:21:32.125Z,20.58
2023-04-23T10:24:07.397Z,20.58
2023-04-23T10:26:40.346Z,20.39
2023-04-23T10:29:14.887Z,20.42
2023-04-23T10:31:44.099Z,20.61
2023-04-23T10:34:12.684Z,20.77
2023-04-23T10:36:41.078Z,20.71
2023-04-23T10:39:10.618Z,21.14
2023-04-23T10:41:42.463Z,21.24
2023-04-23T10:44:15.860Z,21.30
2023-04-23T10:46:53.461Z,21.19
2023-04-23T10:49:24.524Z,20.91
2023-04-23T10:52:18.467Z,21.00
2023-04-23T10:54:51.001Z,21.26
2023-04-23T10:57:20.737Z,21.40
2023-04-23T10:59:54.008Z,21.44
2023-04-23T11:02:24.679Z,21.36
2023-04-23T11:04:57.705Z,21.44
2023-04-23T11:07:31.288Z,21.38
2023-04-23T11:10:01.025Z,21.32
2023-04-23T11:12:34.383Z,21.34
2023-04-23T11:15:12.650Z,21.52
2023-04-23T11:18:06.133Z,21.69
2023-04-23T11:20:34.637Z,21.87
2023-04-23T11:23:02.801Z,22.01
2023-04-23T11:25:31.369Z,21.89
2023-04-23T11:28:01.519Z,21.58
2023-04-23T11:30:31.365Z,21.67
2023-04-23T11:33:01.376Z,21.81
2023-04-23T11:35:32.462Z,21.94
2023-04-23T11:38:00.624Z,22.19
2023-04-23T11:40:31.148Z,22.38
2023-04-23T11:43:00.893Z,22.39
2023-04-23T11:45:30.782Z,22.01
2023-04-23T11:48:01.826Z,21.96
2023-04-23T11:50:33.314Z,22.02
2023-04-23T11:53:06.720Z,22.04
2023-04-23T11:55:34.990Z,22.20
2023-04-23T11:58:04.796Z,22.30
2023-04-23T12:00:33.050Z,21.96
2023-04-23T12:03:02.915Z,21.25
2023-04-23T12:05:33.115Z,21.83
2023-04-23T12:08:12.548Z,21.62
2023-04-23T12:10:45.745Z,21.88
2023-04-23T12:13:19.657Z,22.07
2023-04-23T12:15:48.961Z,22.01
2023-04-23T12:18:17.953Z,22.07
2023-04-23T12:20:47.205Z,21.69
2023-04-23T12:23:16.117Z,21.55
2023-04-23T12:25:44.500Z,21.86
2023-04-23T12:28:12.761Z,22.16
2023-04-23T12:30:46.261Z,22.53
2023-04-23T12:33:15.104Z,22.81
2023-04-23T12:35:44.420Z,22.84
2023-04-23T12:38:24.032Z,22.97
2023-04-23T12:40:52.344Z,23.37
2023-04-23T12:43:20.595Z,23.19
2023-04-23T12:45:51.342Z,23.35
2023-04-23T12:48:19.869Z,23.44
2023-04-23T12:50:48.689Z,23.55
2023-04-23T12:53:17.011Z,23.72
2023-04-23T12:55:46.002Z,23.90
2023-04-23T12:58:14.442Z,23.97
2023-04-23T13:00:42.693Z,24.14
2023-04-23T13:03:14.224Z,23.94
2023-04-23T13:05:42.679Z,23.70
2023-04-23T13:08:10.913Z,24.36
2023-04-23T13:10:39.160Z,24.47
2023-04-23T13:13:07.361Z,24.23
2023-04-23T13:15:35.600Z,24.11
2023-04-23T13:18:03.973Z,24.06
2023-04-23T13:20:33.607Z,23.43
2023-04-23T13:23:03.172Z,23.42
2023-04-23T13:25:31.602Z,23.42
2023-04-23T13:28:00.809Z,24.12
2023-04-23T13:30:29.049Z,24.16
2023-04-23T13:32:59.336Z,24.35
2023-04-23T13:35:28.079Z,24.71
2023-04-23T13:37:57.828Z,24.44
2023-04-23T13:40:26.117Z,24.13
2023-04-23T13:42:55.122Z,24.06
2023-04-23T13:45:23.627Z,23.98
2023-04-23T13:47:51.837Z,23.95
2023-04-23T13:50:20.154Z,23.84
2023-04-23T13:52:48.328Z,23.60
2023-04-23T13:55:18.136Z,23.77
2023-04-23T13:57:46.473Z,23.82
2023-04-23T14:00:15.693Z,23.93
2023-04-23T14:02:44.024Z,24.07
2023-04-23T14:05:12.246Z,24.11
2023-04-23T14:07:40.358Z,24.26
2023-04-23T14:10:09.820Z,24.33
2023-04-23T14:12:39.993Z,24.52
2023-04-23T14:15:09.735Z,24.27
2023-04-23T14:17:39.498Z,24.99
2023-04-23T14:20:09.418Z,24.98
2023-04-23T14:22:37.952Z,25.19
2023-04-23T14:25:10.925Z,25.25
2023-04-23T14:27:46.334Z,25.18
2023-04-23T14:30:20.374Z,25.06
2023-04-23T14:32:50.423Z,24.70
2023-04-23T14:35:24.543Z,24.41
2023-04-23T14:37:57.707Z,24.87
2023-04-23T14:40:26.017Z,24.84
2023-04-23T14:42:59.307Z,24.38
2023-04-23T14:45:33.138Z,24.03
2023-04-23T14:48:04.762Z,23.42
2023-04-23T14:50:32.964Z,23.54
2023-04-23T14:53:03.473Z,23.21
2023-04-23T14:55:34.846Z,22.90
2023-04-23T14:58:04.394Z,22.79
2023-04-23T15:00:32.547Z,22.87
2023-04-23T15:03:02.870Z,22.79
2023-04-23T15:05:31.331Z,22.59
2023-04-23T15:07:59.501Z,22.44
2023-04-23T15:10:27.745Z,22.39
2023-04-23T15:13:03.478Z,22.24
2023-04-23T15:15:45.212Z,21.81
2023-04-23T15:18:14.898Z,22.00
2023-04-23T15:20:43.171Z,21.80
2023-04-23T15:23:12.025Z,21.81
2023-04-23T15:25:40.785Z,21.67
2023-04-23T15:28:09.237Z,21.66
2023-04-23T15:33:08.159Z,21.56
2023-04-23T15:35:36.366Z,21.49
2023-04-23T15:38:04.605Z,21.39
2023-04-23T15:40:33.450Z,21.38
2023-04-23T15:43:01.620Z,21.32
2023-04-23T15:45:29.896Z,21.26
2023-04-23T15:47:59.513Z,21.05
2023-04-23T15:50:27.726Z,21.21
2023-04-23T15:52:58.394Z,21.20
2023-04-23T15:55:26.887Z,20.82
2023-04-23T15:57:55.072Z,21.15
2023-04-23T16:00:23.235Z,21.10
2023-04-23T16:02:51.701Z,21.41
2023-04-23T16:05:23.489Z,21.36
2023-04-23T16:07:51.760Z,21.06
2023-04-23T16:10:20.205Z,21.11
2023-04-23T16:12:48.924Z,20.96
2023-04-23T16:15:17.126Z,21.09
2023-04-23T16:17:45.464Z,21.04
2023-04-23T16:20:14.006Z,21.04
2023-04-23T16:22:44.749Z,20.77
2023-04-23T16:25:13.063Z,20.93
2023-04-23T16:27:41.381Z,20.86
2023-04-23T16:30:10.830Z,20.73
2023-04-23T16:32:39.588Z,20.69
2023-04-23T16:35:08.496Z,20.62
2023-04-23T16:37:36.680Z,20.26
2023-04-23T16:40:07.625Z,20.39
2023-04-23T16:42:35.805Z,20.01
2023-04-23T16:45:04.022Z,19.82
2023-04-23T16:47:32.370Z,19.41
2023-04-23T16:50:02.776Z,19.25
2023-04-23T16:52:31.165Z,18.86
2023-04-23T16:54:59.415Z,18.28
2023-04-23T16:57:29.403Z,17.93
2023-04-23T16:59:58.008Z,17.67
2023-04-23T17:02:26.417Z,17.36
2023-04-23T17:04:55.277Z,17.05
2023-04-23T17:07:23.946Z,16.49
2023-04-23T17:09:52.218Z,16.61
2023-04-23T17:12:20.494Z,16.20
2023-04-23T17:14:50.148Z,16.02
2023-04-23T17:17:18.421Z,15.87
2023-04-23T17:19:46.919Z,15.81
2023-04-23T17:22:15.122Z,15.63
2023-04-23T17:24:43.665Z,15.64
2023-04-23T17:27:12.149Z,15.67
2023-04-23T17:29:40.408Z,15.72
2023-04-23T17:32:10.066Z,15.75
2023-04-23T17:34:38.454Z,15.74
2023-04-23T17:37:06.690Z,15.59
2023-04-23T17:39:34.914Z,15.36
2023-04-23T17:42:03.230Z,15.31
2023-04-23T17:44:31.726Z,15.25
2023-04-23T17:46:59.942Z,15.30
2023-04-23T17:49:29.805Z,15.36
2023-04-23T17:51:58.163Z,15.36
2023-04-23T17:54:56.900Z,15.45
2023-04-23T17:57:25.191Z,15.45
2023-04-23T17:59:53.433Z,15.51
2023-04-23T18:02:21.987Z,15.54
2023-04-23T18:04:51.766Z,15.49
2023-04-23T18:07:20.466Z,15.47
2023-04-23T18:09:49.035Z,15.56
2023-04-23T18:12:17.532Z,15.63
2023-04-23T18:14:45.811Z,15.67
2023-04-23T18:17:17.534Z,15.58
2023-04-23T18:19:45.830Z,15.36
2023-04-23T18:22:15.927Z,15.29
2023-04-23T18:24:44.483Z,15.27
2023-04-23T18:27:12.763Z,15.06
2023-04-23T18:29:41.865Z,15.08
2023-04-23T18:32:12.336Z,15.04
2023-04-23T18:34:44.399Z,14.94
2023-04-23T18:37:33.120Z,14.92
2023-04-23T18:40:01.770Z,15.13
2023-04-23T18:42:30.129Z,15.09
2023-04-23T18:44:58.397Z,14.90
2023-04-23T18:47:32.334Z,14.97
2023-04-23T18:50:03.451Z,14.82
2023-04-23T18:52:33.132Z,14.76
2023-04-23T18:55:01.421Z,14.69
2023-04-23T18:57:29.708Z,14.76
2023-04-23T18:59:58.020Z,14.68
2023-04-23T19:02:35.076Z,14.78
2023-04-23T19:05:04.573Z,14.68
2023-04-23T19:07:37.250Z,14.53
2023-04-23T19:10:06.128Z,14.58
2023-04-23T19:12:34.307Z,14.84
2023-04-23T19:15:02.704Z,14.25
2023-04-23T19:17:31.022Z,14.85
2023-04-23T19:19:59.233Z,14.56
2023-04-23T19:22:27.462Z,14.79
2023-04-23T19:25:16.354Z,14.59
2023-04-23T19:27:44.893Z,14.77
2023-04-23T19:30:14.020Z,14.52
2023-04-23T19:32:42.488Z,14.68
2023-04-23T19:35:11.992Z,14.62
2023-04-23T19:37:40.246Z,14.62
2023-04-23T19:40:11.038Z,14.44
2023-04-23T19:42:39.729Z,14.37
2023-04-23T19:45:08.985Z,14.41
2023-04-23T19:47:40.283Z,14.26
2023-04-23T19:50:09.889Z,14.27
2023-04-23T19:52:38.280Z,14.16
2023-04-23T19:55:08.131Z,13.73
2023-04-23T19:57:37.917Z,13.82
2023-04-23T20:00:07.861Z,13.95
2023-04-23T20:02:36.926Z,13.84
2023-04-23T20:05:06.037Z,13.82
2023-04-23T20:07:34.955Z,13.81
2023-04-23T20:10:03.870Z,13.79
2023-04-23T20:12:33.484Z,13.77
2023-04-23T20:15:03.300Z,13.90
2023-04-23T20:17:31.758Z,13.78
2023-04-23T20:20:02.122Z,13.90
2023-04-23T20:22:30.968Z,13.84
2023-04-23T20:24:59.290Z,13.92
2023-04-23T20:27:28.088Z,14.06
2023-04-23T20:29:56.492Z,13.88
2023-04-23T20:32:26.075Z,13.87
2023-04-23T20:34:54.523Z,13.74
2023-04-23T20:37:22.902Z,13.73
2023-04-23T20:39:51.252Z,13.62
2023-04-23T20:42:19.603Z,13.39
2023-04-23T20:44:49.079Z,13.56
2023-04-23T20:47:17.992Z,13.45
2023-04-23T20:49:47.621Z,13.47
2023-04-23T20:52:16.575Z,12.82
2023-04-23T20:54:44.944Z,13.44
2023-04-23T20:57:13.271Z,13.34
2023-04-23T20:59:41.879Z,13.33
2023-04-23T21:02:13.049Z,13.21
2023-04-23T21:04:41.455Z,12.83
2023-04-23T21:07:11.227Z,13.15
2023-04-23T21:09:39.387Z,13.14
2023-04-23T21:12:07.777Z,12.97
2023-04-23T21:14:36.354Z,13.08
2023-04-23T21:17:04.570Z,13.13
2023-04-23T21:19:32.716Z,13.14
2023-04-23T21:22:00.954Z,13.23
2023-04-23T21:24:30.579Z,12.54
2023-04-23T21:26:58.825Z,13.18
2023-04-23T21:29:27.235Z,13.14
2023-04-23T21:31:55.683Z,13.23
2023-04-23T21:34:24.116Z,13.27
2023-04-23T21:36:52.386Z,13.28
2023-04-23T21:39:20.552Z,13.24
2023-04-23T21:41:50.336Z,13.19
2023-04-23T21:44:18.510Z,13.12
2023-04-23T21:46:46.860Z,13.11
2023-04-23T21:49:15.116Z,13.14
2023-04-23T21:51:43.432Z,13.16
2023-04-23T21:54:11.625Z,13.01
2023-04-23T21:56:40.023Z,12.79
2023-04-23T21:59:09.739Z,12.69
2023-04-23T22:01:38.036Z,12.58
2023-04-23T22:04:06.465Z,12.52
2023-04-23T22:06:35.301Z,12.51
2023-04-23T22:09:03.763Z,12.46
2023-04-23T22:11:32.013Z,12.34
2023-04-23T22:14:00.615Z,12.56
2023-04-23T22:16:30.430Z,12.30
2023-04-23T22:18:58.733Z,12.54
2023-04-23T22:21:26.975Z,12.52
2023-04-23T22:23:55.256Z,12.54
2023-04-23T22:26:23.390Z,12.63
2023-04-23T22:28:51.598Z,12.47
2023-04-23T22:31:19.825Z,12.37
2023-04-23T22:33:49.442Z,12.44
2023-04-23T22:36:18.144Z,12.35
2023-04-23T22:38:46.610Z,11.01
2023-04-23T22:41:14.788Z,12.06
2023-04-23T22:43:42.902Z,12.01
2023-04-23T22:46:11.229Z,12.13
2023-04-23T22:48:45.132Z,12.19
2023-04-23T22:51:15.611Z,12.26
2023-04-23T22:53:43.771Z,12.30
2023-04-23T22:56:12.037Z,12.25
2023-04-23T22:58:40.521Z,12.20
2023-04-23T23:01:08.704Z,12.09
2023-04-23T23:03:37.026Z,12.17
2023-04-23T23:06:05.693Z,12.20
2023-04-23T23:08:35.344Z,12.13
2023-04-23T23:11:03.539Z,11.96
2023-04-23T23:13:32.350Z,11.85
2023-04-23T23:16:04.753Z,11.83
2023-04-23T23:18:32.972Z,11.80
2023-04-23T23:21:01.218Z,11.70
2023-04-23T23:23:29.358Z,11.70
2023-04-23T23:26:00.040Z,11.57
2023-04-23T23:28:28.591Z,11.75
2023-04-23T23:30:57.959Z,11.62
2023-04-23T23:33:27.365Z,11.82
2023-04-23T23:35:55.810Z,11.81
2023-04-23T23:38:24.058Z,11.80
2023-04-23T23:40:52.249Z,11.92
2023-04-23T23:43:21.776Z,11.95
2023-04-23T23:45:50.083Z,11.92
2023-04-23T23:48:18.723Z,11.90
2023-04-23T23:50:47.095Z,11.85
2023-04-23T23:53:15.192Z,9.78
2023-04-23T23:55:43.387Z,11.66
2023-04-23T23:58:11.743Z,11.61
